createdAt,value
2023-07-26T00:01:06.807Z,0.75
2023-07-26T00:03:33.770Z,0.40
2023-07-26T00:06:02.311Z,0.43
2023-07-26T00:08:29.304Z,0.50
2023-07-26T00:10:56.339Z,0.32
2023-07-26T00:13:23.335Z,0.50
2023-07-26T00:15:50.684Z,0.60
2023-07-26T00:18:17.972Z,0.40
2023-07-26T00:20:44.994Z,0.68
2023-07-26T00:23:11.945Z,0.60
2023-07-26T00:25:38.996Z,0.70
2023-07-26T00:28:06.171Z,0.60
2023-07-26T00:30:33.207Z,0.75
2023-07-26T00:33:00.238Z,0.73
2023-07-26T00:35:30.328Z,0.65
2023-07-26T00:37:59.804Z,0.90
2023-07-26T00:40:26.877Z,0.88
2023-07-26T00:42:53.986Z,0.95
2023-07-26T00:45:21.221Z,0.93
2023-07-26T00:47:48.882Z,0.88
2023-07-26T00:50:16.697Z,0.98
2023-07-26T00:52:44.692Z,1.10
2023-07-26T00:55:11.856Z,1.10
2023-07-26T00:57:39.620Z,1.20
2023-07-26T01:00:08.466Z,1.30
2023-07-26T01:02:35.531Z,0.90
2023-07-26T01:05:04.408Z,1.10
2023-07-26T01:07:55.626Z,0.98
2023-07-26T01:10:40.170Z,1.08
2023-07-26T01:13:25.917Z,1.00
2023-07-26T01:15:53.986Z,1.00
2023-07-26T01:18:21.242Z,0.95
2023-07-26T01:20:48.288Z,0.80
2023-07-26T01:23:15.325Z,0.70
2023-07-26T01:25:42.280Z,0.80
2023-07-26T01:28:09.352Z,0.55
2023-07-26T01:30:37.062Z,0.45
2023-07-26T01:33:06.932Z,0.60
2023-07-26T01:35:36.454Z,0.50
2023-07-26T01:38:04.142Z,0.50
2023-07-26T01:40:33.076Z,0.60
2023-07-26T01:43:00.333Z,0.77
2023-07-26T01:45:29.746Z,0.60
2023-07-26T01:47:56.715Z,0.57
2023-07-26T01:50:24.585Z,0.52
2023-07-26T01:52:52.231Z,0.50
2023-07-26T01:55:19.256Z,0.70
2023-07-26T01:57:46.296Z,0.70
2023-07-26T02:00:13.536Z,0.40
2023-07-26T02:02:40.516Z,0.63
2023-07-26T02:05:08.022Z,0.52
2023-07-26T02:07:35.831Z,0.43
2023-07-26T02:10:03.074Z,0.45
2023-07-26T02:12:30.081Z,0.50
2023-07-26T02:14:57.167Z,0.73
2023-07-26T02:17:24.712Z,0.70
2023-07-26T02:19:51.772Z,0.73
2023-07-26T02:22:18.819Z,0.82
2023-07-26T02:24:45.909Z,0.63
2023-07-26T02:27:14.284Z,0.80
2023-07-26T02:29:41.766Z,0.60
2023-07-26T02:32:09.027Z,1.00
2023-07-26T02:34:38.338Z,0.60
2023-07-26T02:37:05.799Z,1.00
2023-07-26T02:39:32.794Z,0.88
2023-07-26T02:41:59.773Z,1.00
2023-07-26T02:44:26.800Z,0.90
2023-07-26T02:46:53.835Z,0.70
2023-07-26T02:49:20.810Z,1.10
2023-07-26T02:51:47.769Z,0.70
2023-07-26T02:54:14.808Z,0.80
2023-07-26T02:56:42.040Z,0.95
2023-07-26T02:59:09.109Z,0.93
2023-07-26T03:01:36.420Z,0.90
2023-07-26T03:04:04.009Z,0.82
2023-07-26T03:06:31.528Z,0.98
2023-07-26T03:08:58.809Z,1.08
2023-07-26T03:11:25.796Z,0.88
2023-07-26T03:13:52.798Z,0.73
2023-07-26T03:16:20.088Z,0.70
2023-07-26T03:18:47.324Z,0.80
2023-07-26T03:21:14.740Z,0.82
2023-07-26T03:23:41.874Z,1.10
2023-07-26T03:26:08.882Z,1.45
2023-07-26T03:28:36.601Z,1.05
2023-07-26T03:31:06.986Z,0.98
2023-07-26T03:33:34.205Z,1.00
2023-07-26T03:36:01.296Z,1.23
2023-07-26T03:38:28.746Z,1.30
2023-07-26T03:40:55.810Z,1.00
2023-07-26T03:43:27.271Z,1.30
2023-07-26T03:46:00.043Z,1.00
2023-07-26T03:48:28.935Z,1.58
2023-07-26T03:50:56.082Z,1.42
2023-07-26T03:53:28.080Z,1.05
2023-07-26T03:55:56.774Z,1.15
2023-07-26T03:58:23.854Z,0.98
2023-07-26T04:00:51.767Z,1.30
2023-07-26T04:03:19.097Z,1.05
2023-07-26T04:05:46.250Z,1.75
2023-07-26T04:08:13.610Z,1.25
2023-07-26T04:10:40.671Z,1.27
2023-07-26T04:13:07.720Z,1.35
2023-07-26T04:15:34.857Z,1.95
2023-07-26T04:18:02.922Z,1.50
2023-07-26T04:20:29.931Z,1.05
2023-07-26T04:22:57.067Z,1.30
2023-07-26T04:25:24.062Z,1.35
2023-07-26T04:27:51.079Z,1.90
2023-07-26T04:30:18.215Z,1.40
2023-07-26T04:32:45.253Z,1.40
2023-07-26T04:35:12.422Z,1.38
2023-07-26T04:37:39.484Z,0.90
2023-07-26T04:40:07.114Z,1.27
2023-07-26T04:42:35.917Z,1.63
2023-07-26T04:45:03.204Z,1.60
2023-07-26T04:47:33.185Z,1.40
2023-07-26T04:50:00.944Z,1.52
2023-07-26T04:52:30.614Z,1.58
2023-07-26T04:54:58.676Z,1.38
2023-07-26T04:57:25.899Z,1.20
2023-07-26T04:59:52.815Z,1.50
2023-07-26T05:02:19.852Z,1.48
2023-07-26T05:04:46.864Z,1.70
2023-07-26T05:07:13.829Z,1.70
2023-07-26T05:09:40.742Z,1.10
2023-07-26T05:12:08.471Z,1.40
2023-07-26T05:14:35.412Z,1.20
2023-07-26T05:17:02.871Z,1.48
2023-07-26T05:19:30.924Z,1.40
2023-07-26T05:21:57.894Z,1.20
2023-07-26T05:24:25.012Z,1.30
2023-07-26T05:26:51.996Z,1.27
2023-07-26T05:29:19.122Z,1.52
2023-07-26T05:31:46.609Z,1.50
2023-07-26T05:34:13.765Z,1.40
2023-07-26T05:37:00.750Z,1.45
2023-07-26T05:39:27.734Z,1.50
2023-07-26T05:41:55.929Z,1.63
2023-07-26T05:44:26.151Z,1.63
2023-07-26T05:46:53.160Z,1.65
2023-07-26T05:49:20.140Z,1.77
2023-07-26T05:51:47.165Z,2.05
2023-07-26T05:54:51.917Z,1.73
2023-07-26T05:57:19.670Z,2.25
2023-07-26T05:59:46.658Z,2.53
2023-07-26T06:02:13.738Z,1.85
2023-07-26T06:04:40.905Z,1.70
2023-07-26T06:07:08.404Z,2.05
2023-07-26T06:09:35.639Z,1.45
2023-07-26T06:12:21.768Z,1.15
2023-07-26T06:14:48.756Z,2.10
2023-07-26T06:17:15.942Z,2.65
2023-07-26T06:19:43.091Z,3.60
2023-07-26T06:22:13.361Z,4.20
2023-07-26T06:24:40.599Z,4.25
2023-07-26T06:27:07.922Z,3.75
2023-07-26T06:29:36.512Z,2.90
2023-07-26T06:32:03.629Z,3.42
2023-07-26T06:34:30.841Z,4.00
2023-07-26T06:36:57.837Z,3.50
2023-07-26T06:39:28.023Z,3.58
2023-07-26T06:41:55.505Z,3.13
2023-07-26T06:44:22.746Z,2.95
2023-07-26T06:46:50.806Z,3.72
2023-07-26T06:49:17.850Z,3.55
2023-07-26T06:51:44.854Z,3.80
2023-07-26T06:54:11.809Z,3.95
2023-07-26T06:56:38.753Z,3.95
2023-07-26T06:59:12.446Z,3.75
2023-07-26T07:01:40.186Z,3.50
2023-07-26T07:04:14.637Z,3.10
2023-07-26T07:06:44.058Z,2.63
2023-07-26T07:09:13.422Z,2.80
2023-07-26T07:11:40.970Z,3.25
2023-07-26T07:14:10.742Z,2.88
2023-07-26T07:16:38.351Z,2.60
2023-07-26T07:19:05.752Z,4.20
2023-07-26T07:21:33.189Z,4.78
2023-07-26T07:24:00.412Z,5.07
2023-07-26T07:26:27.781Z,5.05
2023-07-26T07:28:54.836Z,6.22
2023-07-26T07:31:21.891Z,6.32
2023-07-26T07:33:48.976Z,6.53
2023-07-26T07:36:19.355Z,6.50
2023-07-26T07:38:47.935Z,5.97
2023-07-26T07:41:16.366Z,5.55
2023-07-26T07:43:43.437Z,5.20
2023-07-26T07:46:10.465Z,4.32
2023-07-26T07:48:38.537Z,4.10
2023-07-26T07:51:05.619Z,4.20
2023-07-26T07:53:32.704Z,3.30
2023-07-26T07:56:04.558Z,2.08
2023-07-26T07:58:31.779Z,1.27
2023-07-26T08:01:00.719Z,1.08
2023-07-26T08:03:28.198Z,0.73
2023-07-26T08:05:55.553Z,0.47
2023-07-26T08:08:24.168Z,0.57
2023-07-26T08:10:51.642Z,0.40
2023-07-26T08:13:18.931Z,0.40
2023-07-26T08:15:46.168Z,0.55
2023-07-26T08:18:13.493Z,0.30
2023-07-26T08:20:41.039Z,0.68
2023-07-26T08:23:08.249Z,0.47
2023-07-26T08:25:36.084Z,0.38
2023-07-26T08:28:03.148Z,0.40
2023-07-26T08:30:30.223Z,0.65
2023-07-26T08:32:57.438Z,0.52
2023-07-26T08:35:25.415Z,0.77
2023-07-26T08:37:52.825Z,0.80
2023-07-26T08:40:20.629Z,0.50
2023-07-26T08:42:48.145Z,0.70
2023-07-26T08:45:16.770Z,0.50
2023-07-26T08:47:44.462Z,0.55
2023-07-26T08:50:11.926Z,0.60
2023-07-26T08:52:39.185Z,0.60
2023-07-26T08:55:07.331Z,0.80
2023-07-26T08:57:35.777Z,0.40
2023-07-26T09:00:06.838Z,0.63
2023-07-26T09:02:35.530Z,0.50
2023-07-26T09:05:03.081Z,0.88
2023-07-26T09:07:30.162Z,0.73
2023-07-26T09:09:57.318Z,0.77
2023-07-26T09:12:27.643Z,0.60
2023-07-26T09:15:00.226Z,1.40
2023-07-26T09:17:42.898Z,0.70
2023-07-26T09:20:26.053Z,0.90
2023-07-26T09:23:04.446Z,0.90
2023-07-26T09:25:35.820Z,0.95
2023-07-26T09:28:03.924Z,0.77
2023-07-26T09:30:34.270Z,1.23
2023-07-26T09:33:03.812Z,1.38
2023-07-26T09:35:50.836Z,1.70
2023-07-26T09:38:28.186Z,1.70
2023-07-26T09:40:55.354Z,1.88
2023-07-26T09:43:33.937Z,2.42
2023-07-26T09:46:11.652Z,1.92
2023-07-26T09:49:01.006Z,2.33
2023-07-26T09:51:31.911Z,2.90
2023-07-26T09:53:59.795Z,3.20
2023-07-26T09:56:35.434Z,2.67
2023-07-26T09:59:04.376Z,3.53
2023-07-26T10:01:37.708Z,3.13
2023-07-26T10:04:07.403Z,3.28
2023-07-26T10:06:39.873Z,2.85
2023-07-26T10:09:06.957Z,3.15
2023-07-26T10:11:35.608Z,3.15
2023-07-26T10:14:04.912Z,2.85
2023-07-26T10:16:32.568Z,3.10
2023-07-26T10:19:02.234Z,2.83
2023-07-26T10:21:33.125Z,2.50
2023-07-26T10:24:03.985Z,2.42
2023-07-26T10:26:34.048Z,3.20
2023-07-26T10:29:03.770Z,3.28
2023-07-26T10:31:31.913Z,3.58
2023-07-26T10:33:59.558Z,2.45
2023-07-26T10:36:31.948Z,2.95
2023-07-26T10:39:10.731Z,1.63
2023-07-26T10:41:38.098Z,1.35
2023-07-26T10:44:10.381Z,1.17
2023-07-26T10:46:55.267Z,0.90
2023-07-26T10:49:29.773Z,1.10
2023-07-26T10:51:59.918Z,1.20
2023-07-26T10:55:08.287Z,1.25
2023-07-26T10:57:38.034Z,1.80
2023-07-26T11:00:15.988Z,2.00
2023-07-26T11:02:49.965Z,1.67
2023-07-26T11:05:22.797Z,2.10
2023-07-26T11:08:09.040Z,1.60
2023-07-26T11:10:50.105Z,1.42
2023-07-26T11:13:21.462Z,1.42
2023-07-26T11:16:14.988Z,1.60
2023-07-26T11:18:43.598Z,1.92
2023-07-26T11:21:17.244Z,1.58
2023-07-26T11:23:45.146Z,1.67
2023-07-26T11:26:12.240Z,2.03
2023-07-26T11:28:39.583Z,2.30
2023-07-26T11:31:10.355Z,2.05
2023-07-26T11:33:39.933Z,1.60
2023-07-26T11:36:09.752Z,1.60
2023-07-26T11:38:43.480Z,1.52
2023-07-26T11:41:10.658Z,1.23
2023-07-26T11:43:39.737Z,1.33
2023-07-26T11:46:07.024Z,2.00
2023-07-26T11:48:35.568Z,1.92
2023-07-26T11:51:06.925Z,2.30
2023-07-26T11:53:46.970Z,2.05
2023-07-26T11:56:16.689Z,1.90
2023-07-26T11:58:45.192Z,1.80
2023-07-26T12:01:15.674Z,1.40
2023-07-26T12:03:42.874Z,1.23
2023-07-26T12:06:11.918Z,1.95
2023-07-26T12:08:39.558Z,1.63
2023-07-26T12:11:07.622Z,1.77
2023-07-26T12:13:36.790Z,1.92
2023-07-26T12:16:05.358Z,1.48
2023-07-26T12:18:33.601Z,1.35
2023-07-26T12:21:08.736Z,1.75
2023-07-26T12:23:54.388Z,1.10
2023-07-26T12:26:23.066Z,1.33
2023-07-26T12:28:52.325Z,1.52
2023-07-26T12:31:31.287Z,0.95
2023-07-26T12:34:11.643Z,1.17
2023-07-26T12:36:42.579Z,0.85
2023-07-26T12:39:10.562Z,1.10
2023-07-26T12:41:42.133Z,1.25
2023-07-26T12:44:11.166Z,1.30
2023-07-26T12:49:11.620Z,0.93
2023-07-26T12:51:42.035Z,1.00
2023-07-26T12:54:09.307Z,1.10
2023-07-26T12:56:39.577Z,1.00
2023-07-26T12:59:09.483Z,1.02
2023-07-26T13:01:41.827Z,0.85
2023-07-26T13:04:10.243Z,0.82
2023-07-26T13:06:39.497Z,1.08
2023-07-26T13:09:07.421Z,0.80
2023-07-26T13:11:34.699Z,1.10
2023-07-26T13:14:03.300Z,1.42
2023-07-26T13:16:32.498Z,0.82
2023-07-26T13:19:01.994Z,0.80
2023-07-26T13:21:29.712Z,0.82
2023-07-26T13:23:57.513Z,1.13
2023-07-26T13:26:26.022Z,1.10
2023-07-26T13:28:53.033Z,1.10
2023-07-26T13:31:23.087Z,0.80
2023-07-26T13:33:52.044Z,0.70
2023-07-26T13:36:24.453Z,0.75
2023-07-26T13:38:52.129Z,0.95
2023-07-26T13:41:20.173Z,1.02
2023-07-26T13:43:48.127Z,0.60
2023-07-26T13:48:48.034Z,0.80
2023-07-26T13:51:15.353Z,1.15
2023-07-26T13:53:42.408Z,1.08
2023-07-26T13:56:09.916Z,1.00
2023-07-26T13:58:37.457Z,1.00
2023-07-26T14:01:04.849Z,0.80
2023-07-26T14:03:32.142Z,1.00
2023-07-26T14:06:11.449Z,1.00
2023-07-26T14:08:38.731Z,0.80
2023-07-26T14:11:06.222Z,0.70
2023-07-26T14:13:55.773Z,1.70
2023-07-26T14:16:24.280Z,1.00
2023-07-26T14:18:54.546Z,0.90
2023-07-26T14:21:21.820Z,0.93
2023-07-26T14:23:49.003Z,1.02
2023-07-26T14:26:16.263Z,0.95
2023-07-26T14:28:44.076Z,0.90
2023-07-26T14:31:11.401Z,0.98
2023-07-26T14:33:42.505Z,1.00
2023-07-26T14:36:14.631Z,0.90
2023-07-26T14:38:44.285Z,0.98
2023-07-26T14:41:11.534Z,0.82
2023-07-26T14:43:42.268Z,1.00
2023-07-26T14:46:12.262Z,0.63
2023-07-26T14:48:43.375Z,0.80
2023-07-26T14:51:13.134Z,1.20
2023-07-26T14:53:40.489Z,1.00
2023-07-26T14:56:07.796Z,1.10
2023-07-26T14:58:34.902Z,0.85
2023-07-26T15:01:02.836Z,0.93
2023-07-26T15:04:07.882Z,1.35
2023-07-26T15:06:35.369Z,0.90
2023-07-26T15:09:40.224Z,0.70
2023-07-26T15:12:07.711Z,1.00
2023-07-26T15:14:35.154Z,1.00
2023-07-26T15:17:03.063Z,0.70
2023-07-26T15:19:30.146Z,0.90
2023-07-26T15:21:57.132Z,0.70
2023-07-26T15:24:25.781Z,0.70
2023-07-26T15:26:53.254Z,0.90
2023-07-26T15:29:20.450Z,1.25
2023-07-26T15:31:47.603Z,0.98
2023-07-26T15:34:14.765Z,0.60
2023-07-26T15:36:43.883Z,1.13
2023-07-26T15:39:11.742Z,1.00
2023-07-26T15:44:12.441Z,1.00
2023-07-26T15:47:13.726Z,0.88
2023-07-26T15:49:37.438Z,0.95
2023-07-26T15:52:06.440Z,0.82
2023-07-26T15:54:33.456Z,0.95
2023-07-26T15:57:00.424Z,0.70
2023-07-26T15:59:27.838Z,1.30
2023-07-26T16:01:54.905Z,1.10
2023-07-26T16:09:28.939Z,1.55
2023-07-26T16:21:56.614Z,0.93
2023-07-26T16:24:27.273Z,0.82
2023-07-26T16:26:54.518Z,0.90
2023-07-26T16:29:21.790Z,0.80
2023-07-26T16:31:48.964Z,1.02
2023-07-26T16:34:17.458Z,0.68
2023-07-26T16:37:07.653Z,0.77
2023-07-26T16:39:35.606Z,0.70
2023-07-26T16:42:03.381Z,0.75
2023-07-26T16:44:31.695Z,0.90
2023-07-26T16:47:08.896Z,0.85
2023-07-26T16:49:37.432Z,0.88
2023-07-26T16:52:05.698Z,0.77
2023-07-26T16:54:32.932Z,1.00
2023-07-26T16:57:00.207Z,0.90
2023-07-26T16:59:28.521Z,0.80
2023-07-26T17:01:56.970Z,0.85
2023-07-26T17:04:24.432Z,0.80
2023-07-26T17:06:51.649Z,0.88
2023-07-26T17:09:18.808Z,0.80
2023-07-26T17:12:03.418Z,0.82
2023-07-26T17:14:30.668Z,0.70
2023-07-26T17:16:57.717Z,0.90
2023-07-26T17:19:27.492Z,1.00
2023-07-26T17:21:54.730Z,0.98
2023-07-26T17:24:22.893Z,0.90
2023-07-26T17:27:27.650Z,0.70
2023-07-26T17:29:54.733Z,0.70
2023-07-26T17:32:23.117Z,0.73
2023-07-26T17:34:51.481Z,1.10
2023-07-26T17:37:21.912Z,0.80
2023-07-26T17:39:52.530Z,0.70
2023-07-26T17:42:19.826Z,0.83
2023-07-26T17:44:47.063Z,1.05
2023-07-26T17:47:14.635Z,0.80
2023-07-26T17:49:41.881Z,0.80
2023-07-26T17:52:09.260Z,0.60
2023-07-26T17:54:42.416Z,0.55
2023-07-26T17:57:09.693Z,0.60
2023-07-26T17:59:42.482Z,0.70
2023-07-26T18:02:09.638Z,0.80
2023-07-26T18:04:38.032Z,0.70
2023-07-26T18:07:07.868Z,0.75
2023-07-26T18:09:34.944Z,0.70
2023-07-26T18:12:03.769Z,0.70
2023-07-26T18:14:30.915Z,0.52
2023-07-26T18:17:01.122Z,0.60
2023-07-26T18:19:28.224Z,0.65
2023-07-26T18:21:55.400Z,0.80
2023-07-26T18:24:25.538Z,0.70
2023-07-26T18:26:52.796Z,1.08
2023-07-26T18:29:22.899Z,0.90
2023-07-26T18:31:50.180Z,0.85
2023-07-26T18:34:17.526Z,0.73
2023-07-26T18:36:44.638Z,0.63
2023-07-26T18:39:12.166Z,0.70
2023-07-26T18:41:40.776Z,0.57
2023-07-26T18:44:08.065Z,1.15
2023-07-26T18:46:36.613Z,1.15
2023-07-26T18:49:03.979Z,0.70
2023-07-26T18:51:33.716Z,0.52
2023-07-26T18:54:01.432Z,0.70
2023-07-26T18:56:28.743Z,0.60
2023-07-26T18:58:56.095Z,0.70
2023-07-26T19:01:23.901Z,0.68
2023-07-26T19:03:51.043Z,0.57
2023-07-26T19:06:18.246Z,0.40
2023-07-26T19:08:45.254Z,0.40
2023-07-26T19:11:12.300Z,0.47
2023-07-26T19:13:43.581Z,0.35
2023-07-26T19:16:11.623Z,0.30
2023-07-26T19:18:39.117Z,0.60
2023-07-26T19:21:10.966Z,0.47
2023-07-26T19:23:38.001Z,0.60
2023-07-26T19:26:06.976Z,0.80
2023-07-26T19:28:34.143Z,0.60
2023-07-26T19:31:04.721Z,0.50
2023-07-26T19:33:34.488Z,0.50
2023-07-26T19:36:01.768Z,0.93
2023-07-26T19:38:30.047Z,0.75
2023-07-26T19:41:16.628Z,0.57
2023-07-26T19:43:44.519Z,0.63
2023-07-26T19:46:13.093Z,0.63
2023-07-26T19:48:41.029Z,0.50
2023-07-26T19:51:11.088Z,0.68
2023-07-26T19:53:58.204Z,0.60
2023-07-26T19:56:25.504Z,0.50
2023-07-26T19:58:52.566Z,0.60
2023-07-26T20:01:20.085Z,0.50
2023-07-26T20:03:50.409Z,0.45
2023-07-26T20:06:17.475Z,0.40
2023-07-26T20:08:44.785Z,0.50
2023-07-26T20:11:11.935Z,0.47
2023-07-26T20:13:42.573Z,0.50
2023-07-26T20:16:12.747Z,0.40
2023-07-26T20:18:43.053Z,0.70
2023-07-26T20:21:11.367Z,0.50
2023-07-26T20:23:38.582Z,0.50
2023-07-26T20:26:05.670Z,0.70
2023-07-26T20:28:33.544Z,0.80
2023-07-26T20:31:12.366Z,0.40
2023-07-26T20:33:42.381Z,0.57
2023-07-26T20:36:09.492Z,0.73
2023-07-26T20:38:37.558Z,0.52
2023-07-26T20:41:04.680Z,0.45
2023-07-26T20:43:31.797Z,0.55
2023-07-26T20:45:59.033Z,0.50
2023-07-26T20:48:26.284Z,0.60
2023-07-26T20:50:57.604Z,0.68
2023-07-26T20:53:24.861Z,0.60
2023-07-26T20:55:56.967Z,0.60
2023-07-26T20:59:02.914Z,0.80
2023-07-26T21:01:30.125Z,0.80
2023-07-26T21:03:57.768Z,0.60
2023-07-26T21:06:27.658Z,0.93
2023-07-26T21:08:59.541Z,0.90
2023-07-26T21:11:26.596Z,0.63
2023-07-26T21:13:53.607Z,0.60
2023-07-26T21:16:20.773Z,0.70
2023-07-26T21:18:50.405Z,0.68
2023-07-26T21:21:17.896Z,0.70
2023-07-26T21:23:45.025Z,0.77
2023-07-26T21:26:12.601Z,0.65
2023-07-26T21:28:42.172Z,0.70
2023-07-26T21:31:09.353Z,0.80
2023-07-26T21:33:41.898Z,0.70
2023-07-26T21:36:11.842Z,0.70
2023-07-26T21:38:38.903Z,0.80
2023-07-26T21:41:06.435Z,0.70
2023-07-26T21:43:33.753Z,0.63
2023-07-26T21:46:01.426Z,0.80
2023-07-26T21:48:28.744Z,0.77
2023-07-26T21:50:56.037Z,0.60
2023-07-26T21:53:24.459Z,0.90
2023-07-26T21:55:51.554Z,0.45
2023-07-26T21:58:18.621Z,0.52
2023-07-26T22:00:47.109Z,0.73
2023-07-26T22:03:15.500Z,0.90
2023-07-26T22:06:20.960Z,0.73
2023-07-26T22:08:48.386Z,0.75
2023-07-26T22:11:20.728Z,0.60
2023-07-26T22:13:47.818Z,0.80
2023-07-26T22:16:15.016Z,0.70
2023-07-26T22:18:42.068Z,0.57
2023-07-26T22:21:16.505Z,0.70
2023-07-26T22:23:45.169Z,0.93
2023-07-26T22:26:15.166Z,0.80
2023-07-26T22:29:23.457Z,0.70
2023-07-26T22:31:51.064Z,0.70
2023-07-26T22:34:18.124Z,0.65
2023-07-26T22:36:45.106Z,0.50
2023-07-26T22:39:12.199Z,0.73
2023-07-26T22:41:42.116Z,0.60
2023-07-26T22:44:47.614Z,0.77
2023-07-26T22:47:14.727Z,0.88
2023-07-26T22:49:55.801Z,0.75
2023-07-26T22:52:27.173Z,0.52
2023-07-26T22:54:56.778Z,0.68
2023-07-26T22:57:23.956Z,1.00
2023-07-26T22:59:51.080Z,0.80
2023-07-26T23:02:19.303Z,0.90
2023-07-26T23:04:46.650Z,0.50
2023-07-26T23:07:13.869Z,0.52
2023-07-26T23:09:40.921Z,0.60
2023-07-26T23:12:08.653Z,0.60
2023-07-26T23:15:15.206Z,0.75
2023-07-26T23:17:42.499Z,0.80
2023-07-26T23:20:09.804Z,0.80
2023-07-26T23:22:42.617Z,0.75
2023-07-26T23:25:09.861Z,0.50
2023-07-26T23:27:40.098Z,0.80
2023-07-26T23:30:10.537Z,0.70
2023-07-26T23:32:37.644Z,0.63
2023-07-26T23:35:07.876Z,0.60
2023-07-26T23:37:35.131Z,0.57
2023-07-26T23:40:03.995Z,0.70
2023-07-26T23:42:30.975Z,0.60
2023-07-26T23:44:58.108Z,0.70
2023-07-26T23:47:25.620Z,0.75
2023-07-26T23:49:52.680Z,0.75
2023-07-26T23:52:19.664Z,0.50
2023-07-26T23:54:46.656Z,0.80
2023-07-26T23:57:16.038Z,0.80
2023-07-26T23:59:43.441Z,0.80
